Terminal Aerodrome Forecast
Issued by NWS

Home | Current Version | Previous Version | Text Only | Print | Product List | Glossary On
Versions: 1 2 3 4 5 6 7 8 9 10 11 12 13 14 15 16 17
334
FTUS45 KABQ 281740
TAFROW
TAF
KROW 281740Z 2818/2918 16009KT P6SM BKN100
     FM282200 13008KT P6SM VCTS BKN060CB
     FM290100 12007KT P6SM VCSH OVC070
     FM290400 14006KT P6SM BKN100=

USA.gov is the U.S. government's official web portal to all federal, state and local government web resources and services.